Main page
METAR-TAF:

METAR-TAF

Airports :

Rodez–Aveyron Airport

Rodez, France

latitude: 44-24N, longitude: 002-29E, elevation: 581 m

Current weather observation

The report was made 30 minutes ago, at 05:00 UTC
Wind 3 kt from the Southeast
Temperature 14°C
Humidity 94%
Pressure 1020 hPa
Visibility 10 km or more
no clouds below 1500 m and no cumulonimbus

METAR: LFCR 180500Z AUTO 14003KT CAVOK 14/13 Q1020 NOSIG

Time: 07:30 (05:30 UTC)

Forecast

The report was made 6 hours and 30 minutes ago, at 23:00 UTC
Forecast valid from 18 at 00 UTC to 18 at 24 UTC
Wind 3 kt from variable directions
Visibility 10 km or more
no clouds below 1500 m and no cumulonimbus

TAF: LFCR 172300Z 1800/1824 VRB03KT CAVOK

Weather observations and forecasts of more than 4000 airports (METAR and TAF reports).

The available stations are represented by yellow and red dots on the map.

Hover mouse over dot to see the name of the station.

Then click to see weather observations and forecasts.

To change the map : click on the green buttons with a black cross to zoom in, on the green button with a dash to zoom out, or on the green arrows for adjacent maps.


METAR-TAF: